createdAt,value
2022-12-12T00:00:46.387Z,71.45
2022-12-12T00:02:48.140Z,70.60
2022-12-12T00:04:49.815Z,70.57
2022-12-12T00:06:51.553Z,70.79
2022-12-12T00:08:53.617Z,70.85
2022-12-12T00:10:55.218Z,69.57
2022-12-12T00:12:56.903Z,70.56
2022-12-12T00:14:58.572Z,69.32
2022-12-12T00:17:00.228Z,70.44
2022-12-12T00:19:01.961Z,70.50
2022-12-12T00:21:06.891Z,69.63
2022-12-12T00:23:08.602Z,70.15
2022-12-12T00:25:10.658Z,70.13
2022-12-12T00:27:12.599Z,69.84
2022-12-12T00:29:14.355Z,69.45
2022-12-12T00:31:16.861Z,68.66
2022-12-12T00:33:19.087Z,69.16
2022-12-12T00:35:20.766Z,70.20
2022-12-12T00:37:22.449Z,70.73
2022-12-12T00:39:24.173Z,71.25
2022-12-12T00:41:26.143Z,71.20
2022-12-12T00:43:28.302Z,71.59
2022-12-12T00:45:29.959Z,71.69
2022-12-12T00:47:31.700Z,71.84
2022-12-12T00:49:33.506Z,71.87
2022-12-12T00:51:35.344Z,71.62
2022-12-12T00:53:38.490Z,70.83
2022-12-12T00:55:40.227Z,70.00
2022-12-12T00:57:41.842Z,70.31
2022-12-12T00:59:49.306Z,70.45
2022-12-12T01:01:50.947Z,71.00
2022-12-12T01:03:53.954Z,70.70
2022-12-12T01:05:55.635Z,70.80
2022-12-12T01:07:57.414Z,70.93
2022-12-12T01:09:59.281Z,70.82
2022-12-12T01:12:00.940Z,70.94
2022-12-12T01:14:02.770Z,70.79
2022-12-12T01:16:06.074Z,70.44
2022-12-12T01:18:08.120Z,70.91
2022-12-12T01:20:20.018Z,70.83
2022-12-12T01:22:23.428Z,71.07
2022-12-12T01:24:25.057Z,70.62
2022-12-12T01:26:26.699Z,70.62
2022-12-12T01:28:31.559Z,70.64
2022-12-12T01:30:33.403Z,69.97
2022-12-12T01:32:35.035Z,68.61
2022-12-12T01:34:36.654Z,69.09
2022-12-12T01:36:38.372Z,69.24
2022-12-12T01:38:39.975Z,70.31
2022-12-12T01:40:41.589Z,71.94
2022-12-12T01:42:43.371Z,72.17
2022-12-12T01:44:51.277Z,71.87
2022-12-12T01:46:52.953Z,72.24
2022-12-12T01:49:23.470Z,72.72
2022-12-12T01:51:26.597Z,73.80
2022-12-12T01:53:29.700Z,73.94
2022-12-12T01:55:31.366Z,74.20
2022-12-12T01:57:36.947Z,73.32
2022-12-12T01:59:39.949Z,73.56
2022-12-12T02:01:42.353Z,73.53
2022-12-12T02:03:44.573Z,73.47
2022-12-12T02:05:55.311Z,73.53
2022-12-12T02:07:59.171Z,72.63
2022-12-12T02:10:00.717Z,73.48
2022-12-12T02:12:02.721Z,72.62
2022-12-12T02:14:04.416Z,73.02
2022-12-12T02:16:21.352Z,72.32
2022-12-12T02:18:37.091Z,72.68
2022-12-12T02:21:03.579Z,73.70
2022-12-12T02:23:35.943Z,72.99
2022-12-12T02:25:56.058Z,73.94
2022-12-12T02:28:00.456Z,73.36
2022-12-12T02:30:09.992Z,72.79
2022-12-12T02:32:48.920Z,72.32
2022-12-12T02:35:00.590Z,73.01
2022-12-12T02:37:32.791Z,73.22
2022-12-12T02:39:43.250Z,73.02
2022-12-12T02:41:59.840Z,73.74
2022-12-12T02:44:07.953Z,73.83
2022-12-12T02:46:28.599Z,73.24
2022-12-12T02:48:54.847Z,72.82
2022-12-12T02:50:58.974Z,72.83
2022-12-12T02:53:00.855Z,73.46
2022-12-12T02:55:03.162Z,72.73
2022-12-12T02:57:12.188Z,72.96
2022-12-12T02:59:52.369Z,72.74
2022-12-12T03:02:12.687Z,73.01
2022-12-12T03:05:02.838Z,72.75
2022-12-12T03:07:30.908Z,72.99
2022-12-12T03:09:36.392Z,72.70
2022-12-12T03:12:06.231Z,72.41
2022-12-12T03:14:25.324Z,72.90
2022-12-12T03:16:56.094Z,72.93
2022-12-12T03:18:57.664Z,72.38
2022-12-12T03:21:28.859Z,72.48
2022-12-12T03:23:38.674Z,72.59
2022-12-12T03:25:48.411Z,72.09
2022-12-12T03:28:02.410Z,72.36
2022-12-12T03:30:08.542Z,72.57
2022-12-12T03:32:16.778Z,72.71
2022-12-12T03:34:21.246Z,72.57
2022-12-12T03:36:27.110Z,73.50
2022-12-12T03:38:32.357Z,73.13
2022-12-12T03:40:41.620Z,73.41
2022-12-12T03:42:47.669Z,72.82
2022-12-12T03:44:53.797Z,73.13
2022-12-12T03:47:00.381Z,72.84
2022-12-12T03:49:04.994Z,73.22
2022-12-12T03:51:14.518Z,73.12
2022-12-12T03:53:27.661Z,74.04
2022-12-12T03:55:43.799Z,73.71
2022-12-12T03:57:59.381Z,74.46
2022-12-12T04:00:07.405Z,74.57
2022-12-12T04:02:19.755Z,73.95
2022-12-12T04:04:31.649Z,74.04
2022-12-12T04:06:39.482Z,73.82
2022-12-12T04:09:01.084Z,73.77
2022-12-12T04:11:32.556Z,73.61
2022-12-12T04:13:40.205Z,73.56
2022-12-12T04:15:54.308Z,73.85
2022-12-12T04:18:12.161Z,74.20
2022-12-12T04:20:43.201Z,74.41
2022-12-12T04:23:17.902Z,74.08
2022-12-12T04:25:34.711Z,74.19
2022-12-12T04:27:44.599Z,73.68
2022-12-12T04:30:03.506Z,73.56
2022-12-12T04:32:08.276Z,73.01
2022-12-12T04:34:13.746Z,73.50
2022-12-12T04:36:17.268Z,73.06
2022-12-12T04:38:23.571Z,73.61
2022-12-12T04:40:28.619Z,73.27
2022-12-12T04:42:33.569Z,73.75
2022-12-12T04:44:37.123Z,73.51
2022-12-12T04:46:39.180Z,73.20
2022-12-12T04:48:46.445Z,73.43
2022-12-12T04:50:50.066Z,73.40
2022-12-12T04:52:53.950Z,72.99
2022-12-12T04:55:04.461Z,73.60
2022-12-12T04:57:08.885Z,73.33
2022-12-12T04:59:10.521Z,73.57
2022-12-12T05:01:53.597Z,73.66
2022-12-12T05:04:04.940Z,73.19
2022-12-12T05:06:09.965Z,73.20
2022-12-12T05:08:26.993Z,72.90
2022-12-12T05:10:28.852Z,72.36
2022-12-12T05:12:30.556Z,73.20
2022-12-12T05:14:32.307Z,71.73
2022-12-12T05:16:38.847Z,73.00
2022-12-12T05:18:40.496Z,73.55
2022-12-12T05:20:42.116Z,74.46
2022-12-12T05:22:43.780Z,74.34
2022-12-12T05:24:45.365Z,74.04
2022-12-12T05:26:47.150Z,73.66
2022-12-12T05:28:49.119Z,74.03
2022-12-12T05:30:50.788Z,73.94
2022-12-12T05:32:52.447Z,74.41
2022-12-12T05:34:54.126Z,73.55
2022-12-12T05:36:55.768Z,74.11
2022-12-12T05:38:57.425Z,74.01
2022-12-12T05:40:59.069Z,74.03
2022-12-12T05:43:01.134Z,74.04
2022-12-12T05:45:02.801Z,74.48
2022-12-12T05:47:04.651Z,74.17
2022-12-12T05:49:06.292Z,73.93
2022-12-12T05:51:07.897Z,74.43
2022-12-12T05:53:09.667Z,75.35
2022-12-12T05:55:11.888Z,74.46
2022-12-12T05:57:13.692Z,75.42
2022-12-12T05:59:15.640Z,75.62
2022-12-12T06:01:17.357Z,74.59
2022-12-12T06:03:19.236Z,73.73
2022-12-12T06:05:20.975Z,73.53
2022-12-12T06:07:22.659Z,73.44
2022-12-12T06:09:24.535Z,74.21
2022-12-12T06:11:26.214Z,75.61
2022-12-12T06:13:27.888Z,75.80
2022-12-12T06:15:29.765Z,76.45
2022-12-12T06:17:33.528Z,76.93
2022-12-12T06:19:35.229Z,77.33
2022-12-12T06:21:36.841Z,78.97
2022-12-12T06:23:42.909Z,79.82
2022-12-12T06:25:44.527Z,79.32
2022-12-12T06:27:46.131Z,80.31
2022-12-12T06:29:48.167Z,79.62
2022-12-12T06:31:49.856Z,79.24
2022-12-12T06:33:51.672Z,80.19
2022-12-12T06:36:11.881Z,80.47
2022-12-12T06:38:13.748Z,80.67
2022-12-12T06:40:15.576Z,80.62
2022-12-12T06:42:17.175Z,81.33
2022-12-12T06:44:19.006Z,81.09
2022-12-12T06:46:26.116Z,79.97
2022-12-12T06:48:27.811Z,79.15
2022-12-12T06:50:29.473Z,78.64
2022-12-12T06:52:31.430Z,77.55
2022-12-12T06:54:33.003Z,78.07
2022-12-12T06:56:34.569Z,78.44
2022-12-12T06:58:36.877Z,79.13
2022-12-12T07:00:38.538Z,79.61
2022-12-12T07:02:40.230Z,76.35
2022-12-12T07:04:41.940Z,77.33
2022-12-12T07:06:43.569Z,77.45
2022-12-12T07:08:45.188Z,78.56
2022-12-12T07:10:47.096Z,78.70
2022-12-12T07:12:51.111Z,76.45
2022-12-12T07:14:56.209Z,76.52
2022-12-12T07:16:58.181Z,77.06
2022-12-12T07:18:59.996Z,78.42
2022-12-12T07:21:05.474Z,78.77
2022-12-12T07:23:07.480Z,79.09
2022-12-12T07:25:09.185Z,78.43
2022-12-12T07:27:10.916Z,78.82
2022-12-12T07:29:12.517Z,78.48
2022-12-12T07:31:17.059Z,78.56
2022-12-12T07:33:18.888Z,78.92
2022-12-12T07:35:20.468Z,78.60
2022-12-12T07:37:22.262Z,78.63
2022-12-12T07:39:23.896Z,77.73
2022-12-12T07:41:25.586Z,76.22
2022-12-12T07:43:27.497Z,75.80
2022-12-12T07:45:29.186Z,74.98
2022-12-12T07:47:30.785Z,74.12
2022-12-12T07:49:32.841Z,72.65
2022-12-12T07:51:34.736Z,72.82
2022-12-12T07:53:36.327Z,72.96
2022-12-12T07:55:40.384Z,73.55
2022-12-12T07:57:42.125Z,73.91
2022-12-12T07:59:43.753Z,73.93
2022-12-12T08:01:45.426Z,73.63
2022-12-12T08:03:47.931Z,72.36
2022-12-12T08:05:49.564Z,72.07
2022-12-12T08:07:51.265Z,72.07
2022-12-12T08:09:53.259Z,70.14
2022-12-12T08:11:57.093Z,70.25
2022-12-12T08:13:58.698Z,70.06
2022-12-12T08:16:00.641Z,69.98
2022-12-12T08:18:02.336Z,69.39
2022-12-12T08:20:04.058Z,69.05
2022-12-12T08:22:05.637Z,68.44
2022-12-12T08:24:07.218Z,68.44
2022-12-12T08:26:11.223Z,68.77
2022-12-12T08:28:13.013Z,68.42
2022-12-12T08:30:14.778Z,67.79
2022-12-12T08:32:16.402Z,67.86
2022-12-12T08:34:18.038Z,68.01
2022-12-12T08:36:25.918Z,68.96
2022-12-12T08:38:29.033Z,68.82
2022-12-12T08:40:30.681Z,69.79
2022-12-12T08:42:32.495Z,70.50
2022-12-12T08:44:34.104Z,69.50
2022-12-12T08:46:35.966Z,69.03
2022-12-12T08:48:37.935Z,69.55
2022-12-12T08:50:41.233Z,70.47
2022-12-12T08:52:42.797Z,69.14
2022-12-12T08:54:44.469Z,68.72
2022-12-12T08:56:46.240Z,67.19
2022-12-12T08:58:48.135Z,67.05
2022-12-12T09:00:50.414Z,67.01
2022-12-12T09:02:52.099Z,67.99
2022-12-12T09:04:53.802Z,67.89
2022-12-12T09:06:55.453Z,68.02
2022-12-12T09:08:57.586Z,68.42
2022-12-12T09:10:59.429Z,68.56
2022-12-12T09:13:01.033Z,68.16
2022-12-12T09:15:02.999Z,67.36
2022-12-12T09:17:04.646Z,66.94
2022-12-12T09:19:06.309Z,66.17
2022-12-12T09:21:08.408Z,65.34
2022-12-12T09:23:09.956Z,65.86
2022-12-12T09:25:12.171Z,66.07
2022-12-12T09:27:14.270Z,66.00
2022-12-12T09:29:15.923Z,66.37
2022-12-12T09:31:17.607Z,66.88
2022-12-12T09:33:20.009Z,67.24
2022-12-12T09:35:21.559Z,67.05
2022-12-12T09:37:23.237Z,66.60
2022-12-12T09:39:24.922Z,66.69
2022-12-12T09:41:30.765Z,66.88
2022-12-12T09:43:51.616Z,66.38
2022-12-12T09:45:53.618Z,67.27
2022-12-12T09:47:58.244Z,66.67
2022-12-12T09:50:04.373Z,66.67
2022-12-12T09:52:06.233Z,66.80
2022-12-12T09:54:13.326Z,66.61
2022-12-12T09:57:07.519Z,66.87
2022-12-12T09:59:11.888Z,66.50
2022-12-12T10:01:26.203Z,65.76
2022-12-12T10:04:05.113Z,66.46
2022-12-12T10:09:11.451Z,66.80
2022-12-12T10:11:42.332Z,66.74
2022-12-12T10:13:44.013Z,67.33
2022-12-12T10:15:55.217Z,67.67
2022-12-12T10:17:59.052Z,67.49
2022-12-12T10:20:12.701Z,67.54
2022-12-12T10:22:43.309Z,67.27
2022-12-12T10:24:47.827Z,67.37
2022-12-12T10:26:49.416Z,66.97
2022-12-12T10:28:57.779Z,67.71
2022-12-12T10:31:14.776Z,66.69
2022-12-12T10:33:19.007Z,65.38
2022-12-12T10:35:30.810Z,65.10
2022-12-12T10:37:44.505Z,65.39
2022-12-12T10:40:01.184Z,65.18
2022-12-12T10:42:23.649Z,66.21
2022-12-12T10:44:34.218Z,65.47
2022-12-12T10:47:05.838Z,65.29
2022-12-12T10:49:19.552Z,66.30
2022-12-12T10:51:23.297Z,66.02
2022-12-12T10:53:24.897Z,65.88
2022-12-12T10:55:48.499Z,66.17
2022-12-12T10:58:04.199Z,67.13
2022-12-12T11:00:35.329Z,67.53
2022-12-12T11:02:39.957Z,67.05
2022-12-12T11:04:44.893Z,67.42
2022-12-12T11:06:49.649Z,67.39
2022-12-12T11:09:20.973Z,67.00
2022-12-12T11:11:25.213Z,68.16
2022-12-12T11:13:27.132Z,69.37
2022-12-12T11:15:51.752Z,70.59
2022-12-12T11:17:53.409Z,71.16
2022-12-12T11:19:57.483Z,72.01
2022-12-12T11:22:03.679Z,71.82
2022-12-12T11:24:13.187Z,71.77
2022-12-12T11:26:17.651Z,72.04
2022-12-12T11:28:22.888Z,72.58
2022-12-12T11:30:40.026Z,72.39
2022-12-12T11:32:44.715Z,72.40
2022-12-12T11:34:49.935Z,71.54
2022-12-12T11:36:51.626Z,72.88
2022-12-12T11:38:55.603Z,72.57
2022-12-12T11:41:07.068Z,72.42
2022-12-12T11:43:23.931Z,72.90
2022-12-12T11:45:25.523Z,72.46
2022-12-12T11:47:38.660Z,72.34
2022-12-12T11:49:46.906Z,72.05
2022-12-12T11:51:49.203Z,72.33
2022-12-12T11:53:50.798Z,71.01
2022-12-12T11:56:04.470Z,71.71
2022-12-12T11:58:12.244Z,72.43
2022-12-12T12:00:17.891Z,72.73
2022-12-12T12:02:41.478Z,71.13
2022-12-12T12:04:58.938Z,72.29
2022-12-12T12:07:22.263Z,73.63
2022-12-12T12:09:23.964Z,73.52
2022-12-12T12:11:39.658Z,74.08
2022-12-12T12:13:57.473Z,74.85
2022-12-12T12:16:12.361Z,75.24
2022-12-12T12:18:37.007Z,75.03
2022-12-12T12:21:08.843Z,74.59
2022-12-12T12:23:19.730Z,74.68
2022-12-12T12:25:42.389Z,73.94
2022-12-12T12:28:04.217Z,73.49
2022-12-12T12:30:22.273Z,73.08
2022-12-12T12:32:29.543Z,72.43
2022-12-12T12:35:05.028Z,71.65
2022-12-12T12:37:34.463Z,70.60
2022-12-12T12:39:54.759Z,70.13
2022-12-12T12:42:16.909Z,69.61
2022-12-12T12:44:44.588Z,69.04
2022-12-12T12:47:07.685Z,68.39
2022-12-12T12:49:14.823Z,68.14
2022-12-12T12:51:22.406Z,69.54
2022-12-12T12:53:43.712Z,69.56
2022-12-12T12:55:48.884Z,68.91
2022-12-12T12:57:51.818Z,68.60
2022-12-12T12:59:57.375Z,68.63
2022-12-12T13:02:03.431Z,68.60
2022-12-12T13:04:12.986Z,69.59
2022-12-12T13:06:30.462Z,69.07
2022-12-12T13:08:53.719Z,69.44
2022-12-12T13:11:04.257Z,70.28
2022-12-12T13:13:30.655Z,70.58
2022-12-12T13:15:40.953Z,69.84
2022-12-12T13:18:10.494Z,69.61
2022-12-12T13:20:16.923Z,69.78
2022-12-12T13:22:48.881Z,70.70
2022-12-12T13:25:00.192Z,70.07
2022-12-12T13:27:11.614Z,69.96
2022-12-12T13:29:34.472Z,70.23
2022-12-12T13:32:04.016Z,69.91
2022-12-12T13:34:17.368Z,69.26
2022-12-12T13:36:30.234Z,69.50
2022-12-12T13:38:33.473Z,70.29
2022-12-12T13:40:40.266Z,69.95
2022-12-12T13:42:57.057Z,69.89
2022-12-12T13:45:37.912Z,70.37
2022-12-12T13:47:59.520Z,70.31
2022-12-12T13:50:06.849Z,69.87
2022-12-12T13:52:26.115Z,69.40
2022-12-12T13:54:27.643Z,71.37
2022-12-12T13:56:35.156Z,72.38
2022-12-12T13:58:36.760Z,72.49
2022-12-12T14:00:39.869Z,72.38
2022-12-12T14:02:44.494Z,72.03
2022-12-12T14:04:46.757Z,71.73
2022-12-12T14:07:13.188Z,71.49
2022-12-12T14:09:21.748Z,72.50
2022-12-12T14:11:34.924Z,73.46
2022-12-12T14:13:42.941Z,73.82
2022-12-12T14:15:45.367Z,74.73
2022-12-12T14:18:18.134Z,75.59
2022-12-12T14:20:41.077Z,75.16
2022-12-12T14:22:45.714Z,74.38
2022-12-12T14:25:11.842Z,74.54
2022-12-12T14:27:13.532Z,74.32
2022-12-12T14:29:18.087Z,74.16
2022-12-12T14:31:20.100Z,73.66
2022-12-12T14:33:49.231Z,72.97
2022-12-12T14:35:59.903Z,73.14
2022-12-12T14:38:20.188Z,72.53
2022-12-12T14:40:31.256Z,72.73
2022-12-12T14:43:21.231Z,72.93
2022-12-12T14:44:59.520Z,73.45
2022-12-12T14:47:07.501Z,73.51
2022-12-12T14:49:14.561Z,73.88
2022-12-12T14:51:29.534Z,74.02
2022-12-12T14:53:54.645Z,74.79
2022-12-12T14:55:57.292Z,75.54
2022-12-12T14:57:59.055Z,75.61
2022-12-12T15:00:01.313Z,75.30
2022-12-12T15:02:14.927Z,75.10
2022-12-12T15:04:31.538Z,75.21
2022-12-12T15:06:34.927Z,75.34
2022-12-12T15:08:36.591Z,75.52
2022-12-12T15:10:38.248Z,75.13
2022-12-12T15:12:43.807Z,75.74
2022-12-12T15:14:48.614Z,75.23
2022-12-12T15:17:04.721Z,76.33
2022-12-12T15:19:13.497Z,77.88
2022-12-12T15:21:15.754Z,78.60
2022-12-12T15:23:19.056Z,79.42
2022-12-12T15:25:23.239Z,79.34
2022-12-12T15:27:25.153Z,80.54
2022-12-12T15:29:29.296Z,80.45
2022-12-12T15:31:31.048Z,80.79
2022-12-12T15:33:37.812Z,80.30
2022-12-12T15:35:39.492Z,78.93
2022-12-12T15:37:41.123Z,78.78
2022-12-12T15:39:42.729Z,79.09
2022-12-12T15:41:44.915Z,79.01
2022-12-12T15:43:46.662Z,78.90
2022-12-12T15:45:55.015Z,79.30
2022-12-12T15:47:57.332Z,77.95
2022-12-12T15:50:20.945Z,76.81
2022-12-12T15:52:26.950Z,78.46
2022-12-12T15:54:28.619Z,79.06
2022-12-12T15:56:30.266Z,79.82
2022-12-12T15:58:37.237Z,80.33
2022-12-12T16:00:39.716Z,80.41
2022-12-12T16:02:42.493Z,79.69
2022-12-12T16:05:13.383Z,80.30
2022-12-12T16:07:21.598Z,80.54
2022-12-12T16:09:24.494Z,79.97
2022-12-12T16:11:51.833Z,80.44
2022-12-12T16:13:53.486Z,78.29
2022-12-12T16:15:55.135Z,77.86
2022-12-12T16:18:06.830Z,77.10
2022-12-12T16:20:13.969Z,76.96
2022-12-12T16:22:32.886Z,77.74
2022-12-12T16:24:45.720Z,76.50
2022-12-12T16:26:47.487Z,75.86
2022-12-12T16:28:49.215Z,75.08
2022-12-12T16:30:54.218Z,74.59
2022-12-12T16:32:55.857Z,73.66
2022-12-12T16:34:57.420Z,74.05
2022-12-12T16:36:59.005Z,73.61
2022-12-12T16:39:00.565Z,73.77
2022-12-12T16:41:07.122Z,73.34
2022-12-12T16:43:17.579Z,73.35
2022-12-12T16:45:19.186Z,72.64
2022-12-12T16:47:23.155Z,72.64
2022-12-12T16:49:24.570Z,73.30
2022-12-12T16:51:31.154Z,72.79
2022-12-12T16:53:34.711Z,72.67
2022-12-12T16:55:37.631Z,73.31
2022-12-12T16:57:39.220Z,72.28
2022-12-12T16:59:40.982Z,72.04
2022-12-12T17:01:42.666Z,72.46
2022-12-12T17:03:44.452Z,71.81
2022-12-12T17:05:47.305Z,71.60
2022-12-12T17:07:51.035Z,72.03
2022-12-12T17:09:52.663Z,72.37
2022-12-12T17:11:54.418Z,72.04
2022-12-12T17:13:56.020Z,72.91
2022-12-12T17:15:57.690Z,72.70
2022-12-12T17:18:00.119Z,72.63
2022-12-12T17:20:01.738Z,73.45
2022-12-12T17:22:03.654Z,72.90
2022-12-12T17:24:05.470Z,72.95
2022-12-12T17:26:07.152Z,73.36
2022-12-12T17:28:13.526Z,73.69
2022-12-12T17:30:15.513Z,73.49
2022-12-12T17:32:22.816Z,74.76
2022-12-12T17:34:25.893Z,75.32
2022-12-12T17:36:27.585Z,76.58
2022-12-12T17:38:30.986Z,76.96
2022-12-12T17:40:32.579Z,77.45
2022-12-12T17:42:34.216Z,77.05
2022-12-12T17:44:35.908Z,76.26
2022-12-12T17:46:37.504Z,76.73
2022-12-12T17:48:39.104Z,77.42
2022-12-12T17:50:41.981Z,77.63
2022-12-12T17:52:43.734Z,77.26
2022-12-12T17:55:54.169Z,77.12
2022-12-12T17:57:07.072Z,77.05
2022-12-12T17:59:08.987Z,77.45
2022-12-12T18:01:10.758Z,77.60
2022-12-12T18:03:12.400Z,77.97
2022-12-12T18:05:19.468Z,78.14
2022-12-12T18:07:21.146Z,78.71
2022-12-12T18:09:22.808Z,78.28
2022-12-12T18:11:27.412Z,78.08
2022-12-12T18:13:29.153Z,78.10
2022-12-12T18:15:31.038Z,77.86
2022-12-12T18:17:32.728Z,77.94
2022-12-12T18:19:34.835Z,78.08
2022-12-12T18:22:00.387Z,78.13
2022-12-12T18:23:58.974Z,78.06
2022-12-12T18:26:05.611Z,78.03
2022-12-12T18:28:07.267Z,78.49
2022-12-12T18:30:09.556Z,78.60
2022-12-12T18:32:11.208Z,78.38
2022-12-12T18:34:12.834Z,78.31
2022-12-12T18:36:16.390Z,77.70
2022-12-12T18:38:19.385Z,78.06
2022-12-12T18:40:21.191Z,77.47
2022-12-12T18:42:22.792Z,77.33
2022-12-12T18:44:24.423Z,77.70
2022-12-12T18:46:27.375Z,76.97
2022-12-12T18:48:29.328Z,77.19
2022-12-12T18:50:33.134Z,77.38
2022-12-12T18:52:34.834Z,77.10
2022-12-12T18:54:36.436Z,76.84
2022-12-12T18:56:38.166Z,76.80
2022-12-12T18:58:40.058Z,76.49
2022-12-12T19:00:41.861Z,75.93
2022-12-12T19:02:43.539Z,76.31
2022-12-12T19:04:47.071Z,76.22
2022-12-12T19:06:48.758Z,76.36
2022-12-12T19:08:50.452Z,76.65
2022-12-12T19:10:52.071Z,76.92
2022-12-12T19:12:53.610Z,76.41
2022-12-12T19:17:20.752Z,75.52
2022-12-12T19:19:27.046Z,75.24
2022-12-12T19:21:28.667Z,75.17
2022-12-12T19:23:30.339Z,74.81
2022-12-12T19:25:37.633Z,74.96
2022-12-12T19:27:42.822Z,74.76
2022-12-12T19:29:44.457Z,74.78
2022-12-12T19:31:46.358Z,74.97
2022-12-12T19:33:48.140Z,74.56
2022-12-12T19:35:49.702Z,75.00
2022-12-12T19:37:51.260Z,74.05
2022-12-12T19:39:53.337Z,74.20
2022-12-12T19:41:55.268Z,75.07
2022-12-12T19:44:01.507Z,75.99
2022-12-12T19:46:09.078Z,76.27
2022-12-12T19:48:11.650Z,74.65
2022-12-12T19:50:13.653Z,74.84
2022-12-12T19:52:15.475Z,74.95
2022-12-12T19:54:19.388Z,74.76
2022-12-12T19:56:21.795Z,74.49
2022-12-12T19:58:23.346Z,74.09
2022-12-12T20:00:25.985Z,73.89
2022-12-12T20:02:27.690Z,74.24
2022-12-12T20:04:30.418Z,74.09
2022-12-12T20:06:42.099Z,74.71
2022-12-12T20:08:43.818Z,75.03
2022-12-12T20:10:45.425Z,75.05
2022-12-12T20:12:57.873Z,74.83
2022-12-12T20:15:00.200Z,75.39
2022-12-12T20:17:03.200Z,74.79
2022-12-12T20:19:05.066Z,74.57
2022-12-12T20:21:07.626Z,77.48
2022-12-12T20:23:09.279Z,80.00
2022-12-12T20:25:10.992Z,81.77
2022-12-12T20:27:12.753Z,81.41
2022-12-12T20:29:14.808Z,80.83
2022-12-12T20:31:23.281Z,80.46
2022-12-12T20:33:24.907Z,78.05
2022-12-12T20:35:26.681Z,77.32
2022-12-12T20:37:28.328Z,76.30
2022-12-12T20:39:29.966Z,76.63
2022-12-12T20:41:34.253Z,75.62
2022-12-12T20:43:36.159Z,75.78
2022-12-12T20:45:38.633Z,75.24
2022-12-12T20:47:40.230Z,76.02
2022-12-12T20:49:42.423Z,75.49
2022-12-12T20:51:55.455Z,74.59
2022-12-12T20:54:03.023Z,74.58
2022-12-12T20:56:11.043Z,73.98
2022-12-12T20:58:12.956Z,74.53
2022-12-12T21:00:15.577Z,73.34
2022-12-12T21:02:17.502Z,73.43
2022-12-12T21:04:19.522Z,73.91
2022-12-12T21:06:22.548Z,73.42
2022-12-12T21:08:24.358Z,73.49
2022-12-12T21:10:26.288Z,73.27
2022-12-12T21:12:27.955Z,73.27
2022-12-12T21:14:30.913Z,73.22
2022-12-12T21:16:35.329Z,73.51
2022-12-12T21:18:37.621Z,72.74
2022-12-12T21:20:44.322Z,72.93
2022-12-12T21:22:45.988Z,72.63
2022-12-12T21:24:47.563Z,72.43
2022-12-12T21:26:49.192Z,71.78
2022-12-12T21:28:51.290Z,71.88
2022-12-12T21:30:52.918Z,72.11
2022-12-12T21:32:54.857Z,71.91
2022-12-12T21:34:56.463Z,71.75
2022-12-12T21:36:58.055Z,71.58
2022-12-12T21:39:00.827Z,71.24
2022-12-12T21:41:10.632Z,71.18
2022-12-12T21:43:12.460Z,70.91
2022-12-12T21:45:16.179Z,70.92
2022-12-12T21:47:18.129Z,71.16
2022-12-12T21:49:19.765Z,70.32
2022-12-12T21:51:21.433Z,69.70
2022-12-12T21:53:34.891Z,69.82
2022-12-12T21:55:37.999Z,70.33
2022-12-12T21:57:39.733Z,70.11
2022-12-12T21:59:42.000Z,69.34
2022-12-12T22:01:44.026Z,69.31
2022-12-12T22:03:47.008Z,69.33
2022-12-12T22:05:48.633Z,68.70
2022-12-12T22:07:50.300Z,69.38
2022-12-12T22:09:57.638Z,69.36
2022-12-12T22:12:12.334Z,68.60
2022-12-12T22:14:21.542Z,69.07
2022-12-12T22:16:23.398Z,68.93
2022-12-12T22:18:25.364Z,68.68
2022-12-12T22:20:27.213Z,68.79
2022-12-12T22:22:29.127Z,68.65
2022-12-12T22:24:30.663Z,69.06
2022-12-12T22:26:35.134Z,69.05
2022-12-12T22:28:36.691Z,68.47
2022-12-12T22:30:38.879Z,68.23
2022-12-12T22:32:40.474Z,69.06
2022-12-12T22:34:42.119Z,69.10
2022-12-12T22:36:45.107Z,69.14
2022-12-12T22:38:46.694Z,69.55
2022-12-12T22:40:54.976Z,68.61
2022-12-12T22:42:57.606Z,68.31
2022-12-12T22:44:59.222Z,68.95
2022-12-12T22:47:01.355Z,69.11
2022-12-12T22:49:03.161Z,68.69
2022-12-12T22:51:14.381Z,68.60
2022-12-12T22:53:16.209Z,69.16
2022-12-12T22:55:17.860Z,68.83
2022-12-12T22:57:19.447Z,68.48
2022-12-12T22:59:21.346Z,69.37
2022-12-12T23:01:24.335Z,68.66
2022-12-12T23:03:26.009Z,68.27
2022-12-12T23:05:27.783Z,68.91
2022-12-12T23:07:29.421Z,68.45
2022-12-12T23:09:30.995Z,68.96
2022-12-12T23:11:33.482Z,69.18
2022-12-12T23:13:37.587Z,68.07
2022-12-12T23:15:42.480Z,68.25
2022-12-12T23:17:44.300Z,68.90
2022-12-12T23:19:46.221Z,69.52
2022-12-12T23:21:48.063Z,69.83
